Time;durP1;ratioP1;P1;durP2;ratioP2;P2;SDS_P1;SDS_P2;PMS_P1;PMS_P2;Temp;Humidity;BMP_temperature;BMP_pressure;BME280_temperature;BME280_humidity;BME280_pressure;Samples;Min_cycle;Max_cycle;Signal;HPM_P1;HPM_P2
2023/08/20 00:00:44;;;;;;;35.40;32.03;;;22.40;99.90;;;;;;5119970;28;20054;-77
2023/08/20 00:03:13;;;;;;;36.53;32.72;;;22.30;99.90;;;;;;5120794;28;20028;-78
2023/08/20 00:05:41;;;;;;;35.78;32.30;;;22.20;99.90;;;;;;5091248;28;20403;-79
2023/08/20 00:08:10;;;;;;;37.05;33.38;;;22.10;99.90;;;;;;5105050;28;20528;-77
2023/08/20 00:10:38;;;;;;;36.42;33.00;;;22.10;99.90;;;;;;5099662;28;20484;-79
2023/08/20 00:13:05;;;;;;;36.28;32.78;;;22.00;99.90;;;;;;5101129;28;20495;-79
2023/08/20 00:15:33;;;;;;;36.25;32.75;;;22.00;99.90;;;;;;5099287;28;20043;-78
2023/08/20 00:18:00;;;;;;;36.33;32.92;;;22.00;99.90;;;;;;5099781;28;20103;-78
2023/08/20 00:20:29;;;;;;;37.50;33.70;;;22.00;99.90;;;;;;5098103;28;20093;-78
2023/08/20 00:22:57;;;;;;;36.83;33.28;;;22.10;99.90;;;;;;5081576;28;20067;-78
2023/08/20 00:25:27;;;;;;;36.88;33.58;;;22.00;99.90;;;;;;5098272;28;20036;-78
2023/08/20 00:28:03;;;;;;;35.95;32.22;;;22.00;99.90;;;;;;5099593;28;20052;-78
2023/08/20 00:30:35;;;;;;;36.22;32.45;;;22.10;99.90;;;;;;5097015;28;20113;-78
2023/08/20 00:33:18;;;;;;;37.55;33.65;;;22.10;99.90;;;;;;5098601;28;20487;-78
2023/08/20 00:35:45;;;;;;;39.08;35.10;;;22.00;99.90;;;;;;5101960;28;20495;-79
2023/08/20 00:38:13;;;;;;;36.83;33.13;;;22.00;99.90;;;;;;5100903;28;20084;-78
2023/08/20 00:40:42;;;;;;;38.22;34.42;;;22.00;99.90;;;;;;5076833;28;20055;-78
2023/08/20 00:43:10;;;;;;;38.47;34.50;;;21.90;99.90;;;;;;5091115;28;20047;-77
2023/08/20 00:45:37;;;;;;;36.90;33.20;;;21.90;99.90;;;;;;5096975;28;20498;-76
2023/08/20 00:48:07;;;;;;;37.63;33.83;;;21.80;99.90;;;;;;5079506;28;20117;-78
2023/08/20 00:50:35;;;;;;;36.33;32.63;;;21.80;99.90;;;;;;5099734;28;20402;-78
2023/08/20 00:53:03;;;;;;;37.88;33.78;;;21.80;99.90;;;;;;5099645;28;20048;-77
2023/08/20 00:55:30;;;;;;;36.97;33.45;;;21.80;99.90;;;;;;5076779;28;20534;-79
2023/08/20 00:57:59;;;;;;;38.45;34.45;;;21.80;99.90;;;;;;5081466;28;20036;-78
2023/08/20 01:00:28;;;;;;;37.95;34.15;;;21.80;99.90;;;;;;5080405;28;20116;-78
2023/08/20 01:02:55;;;;;;;38.42;34.45;;;21.70;99.90;;;;;;5079685;28;20052;-78
2023/08/20 01:05:23;;;;;;;38.00;34.10;;;21.70;99.90;;;;;;5076648;28;20134;-77
2023/08/20 01:08:03;;;;;;;38.17;34.13;;;21.70;99.90;;;;;;5096116;28;20047;-78
2023/08/20 01:10:38;;;;;;;37.28;33.58;;;21.70;99.90;;;;;;5097074;28;20039;-78
2023/08/20 01:13:08;;;;;;;37.83;33.80;;;21.70;99.90;;;;;;5099495;28;20093;-78
2023/08/20 01:15:35;;;;;;;38.13;34.30;;;21.60;99.90;;;;;;5096429;28;20040;-78
2023/08/20 01:18:03;;;;;;;38.40;34.75;;;21.50;99.90;;;;;;5097343;28;20047;-78
2023/08/20 01:20:36;;;;;;;37.53;33.72;;;21.40;99.90;;;;;;5096143;28;20067;-78
2023/08/20 01:23:44;;;;;;;38.28;34.38;;;21.40;99.90;;;;;;5077053;28;20055;-77
2023/08/20 01:26:40;;;;;;;40.13;35.95;;;21.30;99.90;;;;;;5095738;28;20529;-78
2023/08/20 01:29:11;;;;;;;39.70;35.60;;;21.20;99.90;;;;;;5077996;28;20044;-78
2023/08/20 01:31:39;;;;;;;38.42;34.50;;;21.20;99.90;;;;;;5078179;28;20064;-78
2023/08/20 01:34:07;;;;;;;39.63;35.72;;;21.20;99.90;;;;;;5095874;28;20048;-78
2023/08/20 01:36:34;;;;;;;39.15;35.25;;;21.20;99.90;;;;;;5096244;28;20112;-78
2023/08/20 01:39:04;;;;;;;38.47;34.38;;;21.30;99.90;;;;;;5098633;28;20123;-78
2023/08/20 01:41:32;;;;;;;38.83;34.95;;;21.30;99.90;;;;;;5097816;28;20051;-78
2023/08/20 01:44:01;;;;;;;39.55;35.50;;;21.30;99.90;;;;;;5077275;28;20406;-78
2023/08/20 01:46:29;;;;;;;39.15;34.92;;;21.30;99.90;;;;;;5097093;28;20048;-78
2023/08/20 01:48:57;;;;;;;39.72;35.40;;;21.30;99.90;;;;;;5095389;28;20035;-78
2023/08/20 01:51:25;;;;;;;39.15;34.95;;;21.20;99.90;;;;;;5076852;28;20055;-79
2023/08/20 01:53:53;;;;;;;39.03;35.30;;;21.20;99.90;;;;;;5076428;28;20307;-77
2023/08/20 01:56:24;;;;;;;41.22;36.72;;;21.20;99.90;;;;;;5078716;28;20044;-77
2023/08/20 01:58:52;;;;;;;40.47;36.47;;;21.10;99.90;;;;;;5087099;28;20059;-76
2023/08/20 02:01:21;;;;;;;38.75;34.88;;;21.20;99.90;;;;;;5097797;28;20039;-77
2023/08/20 02:03:50;;;;;;;42.30;35.33;;;21.10;99.90;;;;;;5096918;28;20684;-78
2023/08/20 02:06:17;;;;;;;39.20;35.17;;;21.00;99.90;;;;;;5075933;28;20153;-78
2023/08/20 02:08:47;;;;;;;39.38;35.58;;;21.00;99.90;;;;;;5078774;28;20044;-78
2023/08/20 02:11:14;;;;;;;40.47;36.30;;;20.90;99.90;;;;;;5095985;28;20509;-78
2023/08/20 02:13:42;;;;;;;41.65;37.25;;;20.90;99.90;;;;;;5079189;28;20514;-78
2023/08/20 02:16:09;;;;;;;41.67;37.58;;;20.90;99.90;;;;;;5079427;28;20048;-77
2023/08/20 02:18:38;;;;;;;41.47;37.20;;;20.80;99.90;;;;;;5097780;28;20044;-78
2023/08/20 02:21:07;;;;;;;42.35;37.85;;;20.80;99.90;;;;;;5080621;28;20040;-78
2023/08/20 02:23:35;;;;;;;41.53;37.42;;;20.70;99.90;;;;;;5082914;28;20044;-78
2023/08/20 02:26:03;;;;;;;44.88;40.20;;;20.70;99.90;;;;;;5099852;28;20078;-78
2023/08/20 02:28:31;;;;;;;43.22;38.92;;;20.70;99.90;;;;;;5081079;28;20050;-78
2023/08/20 02:30:59;;;;;;;45.30;40.78;;;20.60;99.90;;;;;;5099860;28;20036;-78
2023/08/20 02:33:27;;;;;;;43.58;39.30;;;20.40;99.90;;;;;;5083381;28;20394;-79
2023/08/20 02:35:54;;;;;;;44.75;40.28;;;20.30;99.90;;;;;;5098503;28;20047;-78
2023/08/20 02:38:25;;;;;;;45.45;41.00;;;20.30;99.90;;;;;;5099676;28;20135;-78
2023/08/20 02:40:54;;;;;;;45.70;41.05;;;20.20;99.90;;;;;;5080893;28;20047;-78
2023/08/20 02:43:21;;;;;;;46.10;41.63;;;20.20;99.90;;;;;;5100037;28;20593;-78
2023/08/20 02:45:48;;;;;;;44.72;39.92;;;20.20;99.90;;;;;;5082031;28;20494;-78
2023/08/20 02:48:16;;;;;;;43.97;39.67;;;20.20;99.90;;;;;;5081670;28;20047;-78
2023/08/20 02:50:43;;;;;;;41.88;37.63;;;20.20;99.90;;;;;;5081873;28;20052;-78
2023/08/20 02:53:11;;;;;;;43.42;38.78;;;20.20;99.90;;;;;;5080444;28;20075;-78
2023/08/20 02:55:40;;;;;;;41.65;37.50;;;20.30;99.90;;;;;;5082516;28;20064;-79
2023/08/20 02:58:08;;;;;;;39.28;35.25;;;20.30;99.90;;;;;;5085015;28;20403;-77
2023/08/20 03:00:37;;;;;;;39.42;35.35;;;20.40;99.90;;;;;;5104032;28;20430;-77
2023/08/20 03:03:08;;;;;;;41.03;36.75;;;20.40;99.90;;;;;;5085299;28;20048;-78
2023/08/20 03:05:36;;;;;;;38.72;34.83;;;20.50;99.90;;;;;;5083069;28;20040;-78
2023/08/20 03:08:04;;;;;;;40.75;36.60;;;20.50;99.90;;;;;;5076417;28;20530;-78
2023/08/20 03:10:32;;;;;;;39.70;35.60;;;20.50;99.90;;;;;;5059877;28;20043;-78
2023/08/20 03:13:02;;;;;;;39.75;35.83;;;20.40;99.90;;;;;;5080359;28;20052;-78
2023/08/20 03:15:29;;;;;;;42.05;37.80;;;20.30;99.90;;;;;;5078213;28;20097;-78
2023/08/20 03:17:57;;;;;;;41.70;37.30;;;20.20;99.90;;;;;;5079669;28;20055;-78
2023/08/20 03:20:24;;;;;;;41.60;37.15;;;20.20;99.90;;;;;;5079760;28;20082;-78
2023/08/20 03:22:53;;;;;;;42.22;37.60;;;20.10;99.90;;;;;;5078005;28;20235;-78
2023/08/20 03:25:21;;;;;;;42.08;37.75;;;20.10;99.90;;;;;;5074159;28;20667;-78
2023/08/20 03:27:48;;;;;;;42.67;38.35;;;20.00;99.90;;;;;;5076124;28;20550;-77
2023/08/20 03:30:17;;;;;;;42.08;37.65;;;20.00;99.90;;;;;;5076755;28;20054;-77
2023/08/20 03:32:46;;;;;;;41.50;37.15;;;19.90;99.90;;;;;;5080395;28;20043;-79
2023/08/20 03:35:13;;;;;;;38.95;35.15;;;20.00;99.90;;;;;;5077933;28;20592;-76
2023/08/20 03:37:41;;;;;;;40.85;36.75;;;20.00;99.90;;;;;;5077631;28;20064;-78
2023/08/20 03:40:09;;;;;;;40.00;36.10;;;20.00;99.90;;;;;;5078263;28;20040;-78
2023/08/20 03:42:36;;;;;;;41.67;36.13;;;20.20;99.90;;;;;;5077463;28;20050;-78
2023/08/20 03:45:05;;;;;;;39.95;35.78;;;20.20;99.90;;;;;;5076871;28;20523;-78
2023/08/20 03:47:34;;;;;;;41.50;37.03;;;20.20;99.90;;;;;;5079025;28;20169;-78
2023/08/20 03:50:01;;;;;;;41.00;36.58;;;20.30;99.90;;;;;;5077150;28;20052;-78
2023/08/20 03:52:29;;;;;;;38.75;34.75;;;20.30;99.90;;;;;;5078203;28;20160;-78
2023/08/20 03:54:56;;;;;;;40.72;36.47;;;20.20;99.90;;;;;;5078342;28;20146;-77
2023/08/20 03:57:24;;;;;;;39.25;35.15;;;20.20;99.90;;;;;;5091270;28;20037;-77
2023/08/20 03:59:51;;;;;;;44.25;39.47;;;20.30;99.90;;;;;;5077014;28;20135;-77
2023/08/20 04:02:19;;;;;;;42.83;38.47;;;20.30;99.90;;;;;;5076607;28;20095;-78
2023/08/20 04:04:48;;;;;;;40.78;36.58;;;20.30;99.90;;;;;;5077045;28;20420;-78
2023/08/20 04:07:15;;;;;;;43.50;37.08;;;20.30;99.90;;;;;;5071198;28;20163;-78
2023/08/20 04:09:43;;;;;;;41.15;36.92;;;20.30;99.90;;;;;;5059644;28;20047;-78
2023/08/20 04:12:11;;;;;;;40.67;36.35;;;20.30;99.90;;;;;;5060819;28;20048;-79
2023/08/20 04:14:38;;;;;;;41.10;36.80;;;20.30;99.90;;;;;;5078568;28;20459;-77
2023/08/20 04:17:06;;;;;;;39.30;35.10;;;20.30;99.90;;;;;;5078473;28;20068;-78
2023/08/20 04:19:33;;;;;;;40.50;36.42;;;20.40;99.90;;;;;;5060679;28;20055;-78
2023/08/20 04:22:02;;;;;;;39.15;34.90;;;20.30;99.90;;;;;;5060159;28;20314;-79
2023/08/20 04:24:30;;;;;;;39.95;35.60;;;20.50;99.90;;;;;;5078198;28;20040;-78
2023/08/20 04:26:58;;;;;;;39.15;35.25;;;20.40;99.90;;;;;;5061521;28;20055;-78
2023/08/20 04:29:28;;;;;;;38.22;34.42;;;20.40;99.90;;;;;;5065882;28;20075;-78
2023/08/20 04:31:55;;;;;;;38.72;34.78;;;20.50;99.90;;;;;;5081546;28;20261;-78
2023/08/20 04:34:23;;;;;;;38.75;34.75;;;20.50;99.90;;;;;;5065302;28;20448;-77
2023/08/20 04:36:53;;;;;;;38.63;34.80;;;20.50;99.90;;;;;;5063118;28;20048;-77
2023/08/20 04:39:23;;;;;;;40.30;36.00;;;20.50;99.90;;;;;;5065167;28;20044;-77
2023/08/20 04:41:53;;;;;;;39.80;35.92;;;20.50;99.90;;;;;;5067507;28;20058;-78
2023/08/20 04:44:22;;;;;;;39.58;35.63;;;20.50;99.90;;;;;;5063762;28;20048;-78
2023/08/20 04:46:51;;;;;;;37.70;33.67;;;20.60;99.90;;;;;;5059015;28;20040;-78
2023/08/20 04:49:19;;;;;;;39.22;35.17;;;20.60;99.90;;;;;;5060129;28;20051;-78
2023/08/20 04:51:47;;;;;;;41.22;36.63;;;20.60;99.90;;;;;;5079303;28;20044;-77
2023/08/20 04:54:14;;;;;;;38.42;34.63;;;20.70;99.90;;;;;;5059528;28;20059;-77
2023/08/20 04:56:43;;;;;;;37.88;33.92;;;20.80;99.90;;;;;;5078026;28;20063;-77
2023/08/20 04:59:11;;;;;;;51.42;45.85;;;20.80;99.90;;;;;;5083739;28;20051;-78
2023/08/20 05:02:02;;;;;;;45.28;40.35;;;20.70;99.90;;;;;;5068959;28;20550;-78
2023/08/20 05:04:40;;;;;;;38.88;34.97;;;20.80;99.90;;;;;;5059907;28;20040;-77
2023/08/20 05:07:07;;;;;;;37.92;34.15;;;20.80;99.90;;;;;;5059684;28;20109;-77
2023/08/20 05:09:35;;;;;;;42.88;35.15;;;20.90;99.90;;;;;;5062423;28;20097;-77
2023/08/20 05:12:04;;;;;;;39.33;34.97;;;21.00;99.90;;;;;;5077870;28;20048;-78
2023/08/20 05:14:32;;;;;;;40.15;35.85;;;21.10;99.90;;;;;;5059518;28;20052;-76
2023/08/20 05:16:59;;;;;;;38.40;34.30;;;21.20;99.90;;;;;;5058379;28;20074;-78
2023/08/20 05:19:27;;;;;;;38.35;34.50;;;21.20;99.90;;;;;;5079247;28;20036;-78
2023/08/20 05:21:58;;;;;;;37.10;33.35;;;21.20;99.90;;;;;;5060071;28;20036;-78
2023/08/20 05:24:26;;;;;;;38.88;33.33;;;21.30;99.90;;;;;;5059229;28;20039;-78
2023/08/20 05:27:08;;;;;;;43.25;38.75;;;21.40;99.90;;;;;;5059798;28;20066;-78
2023/08/20 05:29:35;;;;;;;43.28;38.88;;;21.60;99.90;;;;;;5083453;28;20098;-79
2023/08/20 05:32:04;;;;;;;42.20;37.67;;;21.80;99.90;;;;;;5059364;28;20072;-78
2023/08/20 05:34:31;;;;;;;43.55;39.10;;;21.90;99.90;;;;;;5076898;28;20047;-78
2023/08/20 05:36:59;;;;;;;46.20;39.95;;;22.10;99.90;;;;;;5075622;28;20044;-78
2023/08/20 05:39:27;;;;;;;39.90;35.90;;;22.40;99.90;;;;;;5059468;28;20047;-78
2023/08/20 05:41:56;;;;;;;36.75;33.13;;;22.60;99.90;;;;;;5060061;28;20475;-77
2023/08/20 05:44:26;;;;;;;37.17;33.47;;;22.90;99.90;;;;;;5056644;28;20064;-78
2023/08/20 05:46:54;;;;;;;37.30;33.38;;;23.10;99.90;;;;;;5055193;28;20569;-78
2023/08/20 05:49:24;;;;;;;39.80;35.55;;;23.30;99.90;;;;;;5059299;28;20048;-78
2023/08/20 05:51:52;;;;;;;40.92;36.58;;;23.40;99.90;;;;;;5063526;28;20076;-78
2023/08/20 05:54:20;;;;;;;40.00;35.70;;;23.60;99.90;;;;;;5061961;28;20052;-78
2023/08/20 05:56:47;;;;;;;34.88;31.52;;;23.90;99.90;;;;;;5062961;28;20052;-77
2023/08/20 05:59:15;;;;;;;36.60;32.80;;;23.90;99.90;;;;;;5063558;28;20063;-78
2023/08/20 06:01:44;;;;;;;40.58;34.72;;;24.00;99.90;;;;;;5063647;28;20499;-77
2023/08/20 06:04:12;;;;;;;40.15;35.88;;;24.00;99.90;;;;;;5063664;28;20144;-78
2023/08/20 06:06:40;;;;;;;37.88;33.88;;;24.20;99.90;;;;;;5064302;28;20040;-78
2023/08/20 06:09:07;;;;;;;52.65;35.78;;;24.40;99.90;;;;;;5100846;28;20102;-79
2023/08/20 06:11:35;;;;;;;41.13;36.83;;;24.50;99.90;;;;;;5100826;28;20517;-78
2023/08/20 06:14:02;;;;;;;37.65;32.80;;;24.60;99.90;;;;;;5099455;28;20036;-79
2023/08/20 06:16:30;;;;;;;36.40;32.38;;;24.80;99.90;;;;;;5101415;28;20043;-79
2023/08/20 06:18:59;;;;;;;35.55;31.83;;;24.90;99.90;;;;;;5084150;28;20467;-79
2023/08/20 06:21:26;;;;;;;36.25;32.45;;;24.80;99.90;;;;;;5100488;28;20063;-79
2023/08/20 06:23:54;;;;;;;35.40;31.63;;;24.80;99.90;;;;;;5100415;28;20043;-79
2023/08/20 06:26:21;;;;;;;36.00;31.30;;;25.00;99.90;;;;;;5080177;28;20044;-80
2023/08/20 06:28:50;;;;;;;34.90;30.70;;;25.40;99.90;;;;;;5098541;28;20579;-79
2023/08/20 06:31:20;;;;;;;37.42;31.85;;;25.70;99.90;;;;;;5098564;28;20530;-81
2023/08/20 06:33:48;;;;;;;36.67;32.67;;;26.10;99.90;;;;;;5097063;28;20130;-79
2023/08/20 06:36:17;;;;;;;34.55;31.00;;;26.40;99.90;;;;;;5096711;28;20043;-78
2023/08/20 06:38:44;;;;;;;34.08;30.45;;;26.50;99.90;;;;;;5098995;28;20039;-79
2023/08/20 06:41:12;;;;;;;39.67;35.17;;;26.60;99.90;;;;;;5078531;28;20054;-79
2023/08/20 06:43:39;;;;;;;37.35;32.08;;;26.50;99.90;;;;;;5098518;28;20490;-77
2023/08/20 06:46:07;;;;;;;36.92;33.13;;;26.40;99.90;;;;;;5095496;28;20050;-78
2023/08/20 06:48:34;;;;;;;38.92;34.70;;;26.30;99.90;;;;;;5098611;28;20101;-78
2023/08/20 06:51:11;;;;;;;36.58;32.90;;;26.30;99.90;;;;;;5099969;28;20054;-77
2023/08/20 06:53:41;;;;;;;37.83;32.88;;;26.40;99.90;;;;;;5098577;28;20122;-78
2023/08/20 06:56:09;;;;;;;38.28;32.67;;;26.60;99.90;;;;;;5098233;28;20046;-78
2023/08/20 06:58:37;;;;;;;37.65;33.45;;;26.80;99.90;;;;;;5099891;28;20101;-77
2023/08/20 07:01:08;;;;;;;35.97;32.10;;;27.10;99.90;;;;;;5097331;28;20044;-78
2023/08/20 07:03:39;;;;;;;37.50;33.50;;;27.30;99.90;;;;;;5099157;28;20040;-78
2023/08/20 07:06:06;;;;;;;37.25;32.67;;;27.40;99.90;;;;;;5099741;28;20126;-78
2023/08/20 07:08:35;;;;;;;36.42;32.85;;;27.50;99.90;;;;;;5072412;28;20040;-77
2023/08/20 07:11:05;;;;;;;34.97;30.95;;;27.70;99.90;;;;;;5086872;28;20064;-78
2023/08/20 07:13:33;;;;;;;35.70;31.73;;;27.40;99.90;;;;;;5084886;28;20125;-78
2023/08/20 07:16:01;;;;;;;38.78;34.60;;;26.90;99.90;;;;;;5080495;28;20550;-79
2023/08/20 07:18:28;;;;;;;38.17;33.00;;;26.80;99.90;;;;;;5080988;28;20052;-78
2023/08/20 07:20:57;;;;;;;36.85;31.67;;;26.90;99.90;;;;;;5083343;28;20047;-79
2023/08/20 07:23:24;;;;;;;34.67;30.92;;;27.00;99.90;;;;;;5081353;28;20482;-78
2023/08/20 07:25:52;;;;;;;33.60;30.10;;;27.20;99.90;;;;;;5062070;28;20040;-78
2023/08/20 07:28:56;;;;;;;33.50;29.90;;;27.40;99.90;;;;;;5080149;28;20387;-77
2023/08/20 07:31:08;;;;;;;32.22;28.70;;;27.70;99.90;;;;;;5080914;28;20163;-79
2023/08/20 07:33:35;;;;;;;31.13;27.75;;;27.80;99.90;;;;;;5079007;28;20036;-78
2023/08/20 07:36:03;;;;;;;28.67;25.52;;;27.80;99.90;;;;;;5080862;28;20036;-77
2023/08/20 07:38:30;;;;;;;29.85;26.65;;;27.80;99.90;;;;;;5080077;28;20037;-78
2023/08/20 07:40:58;;;;;;;30.35;26.73;;;27.60;99.90;;;;;;5080377;28;20073;-76
2023/08/20 07:43:27;;;;;;;32.55;28.85;;;27.80;99.90;;;;;;5080893;28;20562;-78
2023/08/20 07:45:54;;;;;;;34.13;30.63;;;28.00;99.90;;;;;;5078550;28;20153;-78
2023/08/20 07:48:22;;;;;;;37.20;33.22;;;28.00;99.90;;;;;;5079081;28;20032;-79
2023/08/20 07:50:49;;;;;;;35.58;32.00;;;27.90;99.90;;;;;;5080075;28;20355;-78
2023/08/20 07:53:17;;;;;;;33.80;30.17;;;28.00;99.90;;;;;;5079500;28;20059;-79
2023/08/20 07:55:47;;;;;;;34.40;30.73;;;28.30;99.90;;;;;;5080287;28;20070;-77
2023/08/20 07:58:14;;;;;;;35.28;31.45;;;28.10;99.90;;;;;;5079948;28;20152;-78
2023/08/20 08:00:44;;;;;;;35.58;31.60;;;27.90;99.90;;;;;;5080271;28;20054;-79
2023/08/20 08:03:14;;;;;;;33.65;30.15;;;27.80;99.90;;;;;;5082872;28;20051;-80
2023/08/20 08:05:42;;;;;;;34.53;30.92;;;27.70;99.90;;;;;;5079310;28;20041;-78
2023/08/20 08:08:09;;;;;;;35.40;31.60;;;27.40;99.90;;;;;;5089582;28;20039;-78
2023/08/20 08:10:37;;;;;;;33.67;30.25;;;27.30;99.90;;;;;;5095983;28;20043;-78
2023/08/20 08:13:04;;;;;;;34.67;31.15;;;27.30;99.90;;;;;;5099144;28;20044;-79
2023/08/20 08:15:33;;;;;;;36.13;32.38;;;27.40;99.90;;;;;;5080621;28;20144;-78
2023/08/20 08:18:03;;;;;;;34.95;31.27;;;27.70;99.90;;;;;;5096423;28;20043;-78
2023/08/20 08:20:30;;;;;;;33.70;30.13;;;27.90;99.90;;;;;;5097515;28;20101;-77
2023/08/20 08:22:58;;;;;;;32.75;29.25;;;27.90;99.90;;;;;;5098794;28;20053;-79
2023/08/20 08:25:26;;;;;;;34.22;30.52;;;28.10;99.90;;;;;;5079525;28;20632;-79
2023/08/20 08:27:54;;;;;;;33.03;29.48;;;28.10;99.90;;;;;;5096519;28;20047;-77
2023/08/20 08:30:25;;;;;;;31.20;27.83;;;28.20;99.90;;;;;;5095907;28;20048;-78
2023/08/20 08:32:53;;;;;;;33.63;30.23;;;28.10;99.90;;;;;;5079909;28;20040;-78
2023/08/20 08:35:23;;;;;;;33.35;29.85;;;27.90;99.90;;;;;;5098780;28;20192;-77
2023/08/20 08:37:51;;;;;;;31.77;28.48;;;27.90;99.90;;;;;;5097721;28;20143;-77
2023/08/20 08:40:18;;;;;;;32.00;28.80;;;27.90;99.90;;;;;;5095937;28;20048;-78
2023/08/20 08:42:49;;;;;;;33.58;30.08;;;28.00;99.90;;;;;;5097895;28;20097;-78
2023/08/20 08:45:19;;;;;;;32.78;29.38;;;28.00;99.90;;;;;;5094471;28;20048;-78
2023/08/20 08:47:47;;;;;;;32.60;28.77;;;27.90;99.90;;;;;;5092286;28;20550;-77
2023/08/20 08:50:15;;;;;;;31.85;28.65;;;27.90;99.90;;;;;;5096988;28;20223;-79
2023/08/20 08:52:47;;;;;;;32.05;28.67;;;27.80;99.90;;;;;;5097156;28;20058;-79
2023/08/20 08:55:15;;;;;;;32.20;28.90;;;27.80;99.90;;;;;;5099053;28;20050;-81
2023/08/20 08:57:45;;;;;;;35.80;32.00;;;27.90;99.90;;;;;;5097400;28;20087;-79
2023/08/20 09:00:14;;;;;;;32.45;28.95;;;28.00;99.90;;;;;;5076364;28;20044;-78
2023/08/20 09:02:42;;;;;;;30.85;27.60;;;28.10;99.90;;;;;;5078582;28;20056;-80
2023/08/20 09:05:11;;;;;;;30.58;27.50;;;28.20;99.90;;;;;;5096103;28;20509;-79
2023/08/20 09:07:45;;;;;;;34.05;30.40;;;28.30;99.90;;;;;;5095105;28;20047;-78
2023/08/20 09:10:13;;;;;;;34.33;30.88;;;28.40;99.90;;;;;;5103427;28;20066;-79
2023/08/20 09:12:41;;;;;;;30.50;27.50;;;28.50;99.90;;;;;;5100692;28;20055;-78
2023/08/20 09:15:12;;;;;;;31.33;27.80;;;28.50;99.90;;;;;;5102935;28;20115;-77
2023/08/20 09:17:41;;;;;;;31.95;27.77;;;28.40;99.90;;;;;;5102145;28;20273;-77
2023/08/20 09:20:09;;;;;;;29.45;26.60;;;28.50;99.90;;;;;;5098889;28;20074;-78
2023/08/20 09:22:38;;;;;;;28.88;25.92;;;28.50;99.90;;;;;;5101560;28;20047;-79
2023/08/20 09:25:08;;;;;;;29.95;26.80;;;28.70;99.90;;;;;;5105517;28;20060;-78
2023/08/20 09:27:41;;;;;;;31.40;28.23;;;28.80;99.90;;;;;;5104160;28;20040;-77
2023/08/20 09:30:10;;;;;;;32.08;28.77;;;28.90;99.90;;;;;;5106303;28;20048;-77
2023/08/20 09:32:37;;;;;;;27.95;25.15;;;28.90;99.90;;;;;;5103907;28;20108;-79
2023/08/20 09:35:06;;;;;;;28.50;25.42;;;28.90;99.90;;;;;;5097558;28;20036;-78
2023/08/20 09:37:35;;;;;;;27.92;25.08;;;28.80;99.90;;;;;;5099633;28;20121;-79
2023/08/20 09:40:03;;;;;;;32.15;28.77;;;28.80;99.90;;;;;;5096798;28;20109;-78
2023/08/20 09:42:33;;;;;;;30.60;27.48;;;28.90;99.90;;;;;;5078892;28;20047;-78
2023/08/20 09:45:04;;;;;;;28.25;25.42;;;29.10;99.90;;;;;;5099037;28;20047;-79
2023/08/20 09:47:36;;;;;;;28.55;25.48;;;29.30;99.90;;;;;;5094390;28;20043;-81
2023/08/20 09:50:09;;;;;;;28.17;25.33;;;29.40;99.90;;;;;;5096577;28;20459;-79
2023/08/20 09:52:40;;;;;;;25.50;23.00;;;29.50;99.90;;;;;;5078047;28;20044;-79
2023/08/20 09:55:10;;;;;;;24.60;22.25;;;29.70;99.90;;;;;;5096368;28;20096;-79
2023/08/20 09:57:41;;;;;;;26.63;23.75;;;29.80;99.90;;;;;;5095683;28;20163;-79
2023/08/20 10:00:11;;;;;;;26.00;23.48;;;29.90;99.90;;;;;;5078137;28;20052;-78
2023/08/20 10:02:42;;;;;;;27.05;23.38;;;30.00;99.90;;;;;;5093498;28;20048;-77
2023/08/20 10:05:11;;;;;;;24.92;22.27;;;30.20;99.90;;;;;;5097623;28;20044;-79
2023/08/20 10:07:40;;;;;;;24.65;22.05;;;30.20;99.90;;;;;;5095341;28;20519;-77
2023/08/20 10:10:10;;;;;;;25.52;22.88;;;30.00;99.90;;;;;;5092796;28;20050;-79
2023/08/20 10:12:41;;;;;;;25.50;22.02;;;30.00;99.90;;;;;;5096987;28;20552;-76
2023/08/20 10:15:10;;;;;;;25.88;23.30;;;29.90;99.90;;;;;;5096471;28;20048;-78
2023/08/20 10:17:40;;;;;;;22.70;20.42;;;29.90;99.90;;;;;;5094662;28;20032;-78
2023/08/20 10:20:08;;;;;;;24.27;21.88;;;30.10;99.90;;;;;;5078262;28;20635;-78
2023/08/20 10:22:38;;;;;;;27.30;24.55;;;30.10;99.90;;;;;;5095965;28;20131;-79
2023/08/20 10:25:08;;;;;;;25.98;23.45;;;30.30;99.90;;;;;;5076273;28;20052;-77
2023/08/20 10:27:37;;;;;;;24.45;22.15;;;30.30;99.90;;;;;;5095765;28;20071;-80
2023/08/20 10:30:15;;;;;;;24.02;21.52;;;30.50;99.90;;;;;;5095590;28;20527;-81
2023/08/20 10:32:47;;;;;;;25.90;23.00;;;30.60;99.90;;;;;;5094140;28;20055;-80
2023/08/20 10:35:17;;;;;;;23.95;21.55;;;30.60;99.90;;;;;;5091800;28;20258;-78
2023/08/20 10:38:06;;;;;;;23.17;20.67;;;30.50;99.90;;;;;;5093731;28;20059;-80
2023/08/20 10:40:55;;;;;;;24.52;22.23;;;30.40;99.90;;;;;;5099613;28;20046;-79
2023/08/20 10:43:33;;;;;;;25.50;22.90;;;30.20;99.90;;;;;;5100540;28;20563;-79
2023/08/20 10:46:07;;;;;;;25.77;23.17;;;30.30;99.90;;;;;;5100758;28;20123;-79
2023/08/20 10:48:35;;;;;;;26.92;24.15;;;30.40;99.90;;;;;;5099573;28;20395;-79
2023/08/20 10:51:11;;;;;;;24.33;22.02;;;30.70;99.90;;;;;;5100230;28;20077;-76
2023/08/20 10:53:40;;;;;;;24.13;21.63;;;30.80;99.90;;;;;;5102217;28;20449;-78
2023/08/20 10:56:12;;;;;;;24.05;21.60;;;31.00;99.90;;;;;;5099351;28;20551;-77
2023/08/20 10:58:44;;;;;;;33.85;30.38;;;31.30;99.90;;;;;;5100477;28;20044;-77
2023/08/20 11:01:22;;;;;;;22.17;19.98;;;31.60;99.90;;;;;;5097625;28;20093;-78
2023/08/20 11:03:50;;;;;;;25.92;23.33;;;31.80;99.90;;;;;;5099559;28;20075;-77
2023/08/20 11:06:19;;;;;;;21.38;19.30;;;31.90;99.90;;;;;;5096923;28;20316;-78
2023/08/20 11:08:47;;;;;;;21.95;19.85;;;32.10;99.90;;;;;;5079903;28;20052;-78
2023/08/20 11:11:15;;;;;;;20.33;18.33;;;32.20;99.90;;;;;;5099862;28;20036;-79
2023/08/20 11:13:42;;;;;;;23.13;20.75;;;32.10;99.90;;;;;;5099041;28;20035;-79
2023/08/20 11:16:10;;;;;;;33.95;30.38;;;32.00;99.90;;;;;;5098603;28;20052;-79
2023/08/20 11:18:39;;;;;;;21.58;18.88;;;31.90;99.90;;;;;;5096150;28;20105;-79
2023/08/20 11:21:08;;;;;;;23.08;20.85;;;31.80;99.90;;;;;;5099458;28;20047;-78
2023/08/20 11:23:38;;;;;;;20.55;17.83;;;31.80;99.90;;;;;;5098733;28;20106;-79
2023/08/20 11:26:07;;;;;;;21.88;19.70;;;31.70;99.90;;;;;;5099628;28;20502;-78
2023/08/20 11:28:35;;;;;;;16.55;14.80;;;31.60;99.90;;;;;;5080792;28;20043;-78
2023/08/20 11:31:03;;;;;;;19.45;17.00;;;31.60;99.90;;;;;;5099961;28;20123;-77
2023/08/20 11:33:31;;;;;;;16.27;14.68;;;31.60;99.90;;;;;;5100041;28;20064;-78
2023/08/20 11:36:00;;;;;;;18.45;16.75;;;31.70;99.90;;;;;;5098583;28;20043;-79
2023/08/20 11:38:28;;;;;;;18.63;11.13;;;31.80;99.90;;;;;;5098914;28;20071;-79
2023/08/20 11:40:57;;;;;;;14.50;13.00;;;31.80;99.90;;;;;;5098967;28;20491;-80
2023/08/20 11:43:24;;;;;;;11.77;10.52;;;31.70;99.90;;;;;;5098662;28;20097;-79
2023/08/20 11:45:52;;;;;;;17.70;12.75;;;31.80;99.90;;;;;;5096253;28;20056;-80
2023/08/20 11:48:22;;;;;;;12.77;9.88;;;31.60;99.90;;;;;;5097459;28;20040;-79
2023/08/20 11:50:50;;;;;;;14.43;9.63;;;31.60;99.90;;;;;;5097554;28;20053;-79
2023/08/20 11:53:24;;;;;;;13.48;9.60;;;31.00;99.90;;;;;;5081801;28;20044;-79
2023/08/20 11:55:51;;;;;;;10.73;9.63;;;30.80;99.90;;;;;;5078492;28;20056;-80
2023/08/20 11:58:21;;;;;;;12.55;9.77;;;30.80;99.90;;;;;;5095484;28;20068;-79
2023/08/20 12:00:51;;;;;;;13.65;10.15;;;30.80;99.90;;;;;;5080574;28;20054;-79
2023/08/20 12:03:20;;;;;;;10.50;9.13;;;30.70;99.90;;;;;;5099092;28;20048;-79
2023/08/20 12:05:48;;;;;;;11.00;9.65;;;30.70;99.90;;;;;;5099771;28;20039;-79
2023/08/20 12:08:17;;;;;;;9.15;8.27;;;30.70;99.90;;;;;;5098165;28;20044;-80
2023/08/20 12:10:46;;;;;;;10.27;8.73;;;30.70;99.90;;;;;;5100179;28;20043;-79
2023/08/20 12:13:14;;;;;;;13.30;9.05;;;30.90;99.90;;;;;;5101831;28;20558;-80
2023/08/20 12:15:41;;;;;;;10.55;9.20;;;31.00;99.90;;;;;;5099382;28;20543;-79
2023/08/20 12:18:10;;;;;;;10.88;9.65;;;31.30;99.90;;;;;;5099156;28;20062;-80
2023/08/20 12:20:37;;;;;;;11.82;9.35;;;31.50;99.90;;;;;;5099049;28;20047;-78
2023/08/20 12:23:07;;;;;;;10.85;9.85;;;31.50;99.90;;;;;;5081080;28;20119;-79
2023/08/20 12:25:36;;;;;;;11.90;10.32;;;31.20;99.90;;;;;;5098991;28;20070;-79
2023/08/20 12:28:07;;;;;;;12.05;9.98;;;31.20;99.90;;;;;;5100325;28;20044;-79
2023/08/20 12:30:35;;;;;;;11.45;9.68;;;31.10;99.90;;;;;;5093419;28;20139;-78
2023/08/20 12:33:03;;;;;;;11.93;10.10;;;30.90;99.90;;;;;;5107339;28;20031;-79
2023/08/20 12:35:30;;;;;;;13.40;9.63;;;30.70;99.90;;;;;;5120133;28;20076;-79
2023/08/20 12:37:58;;;;;;;14.45;13.13;;;30.70;99.90;;;;;;5120996;28;20062;-79